sensor_id;sensor_type;location;lat;lon;timestamp;P1;durP1;ratioP1;P2;durP2;ratioP2
5559;SDS011;2803;47.916;8.074;2024-02-14T00:00:00;5.27;;;2.50;;
5559;SDS011;2803;47.916;8.074;2024-02-14T00:02:27;4.70;;;1.50;;
5559;SDS011;2803;47.916;8.074;2024-02-14T00:04:53;4.87;;;1.80;;
5559;SDS011;2803;47.916;8.074;2024-02-14T00:07:21;6.13;;;1.80;;
5559;SDS011;2803;47.916;8.074;2024-02-14T00:09:49;4.10;;;2.23;;
5559;SDS011;2803;47.916;8.074;2024-02-14T00:12:15;2.50;;;1.60;;
5559;SDS011;2803;47.916;8.074;2024-02-14T00:14:43;4.50;;;1.63;;
5559;SDS011;2803;47.916;8.074;2024-02-14T00:17:10;3.63;;;1.83;;
5559;SDS011;2803;47.916;8.074;2024-02-14T00:19:37;5.93;;;2.17;;
5559;SDS011;2803;47.916;8.074;2024-02-14T00:22:04;2.73;;;1.50;;
5559;SDS011;2803;47.916;8.074;2024-02-14T00:24:32;9.23;;;2.20;;
5559;SDS011;2803;47.916;8.074;2024-02-14T00:27:00;4.60;;;2.17;;
5559;SDS011;2803;47.916;8.074;2024-02-14T00:29:28;3.87;;;1.70;;
5559;SDS011;2803;47.916;8.074;2024-02-14T00:31:55;4.97;;;1.73;;
5559;SDS011;2803;47.916;8.074;2024-02-14T00:34:21;4.27;;;2.00;;
5559;SDS011;2803;47.916;8.074;2024-02-14T00:36:48;2.60;;;1.70;;
5559;SDS011;2803;47.916;8.074;2024-02-14T00:39:15;3.93;;;1.50;;
5559;SDS011;2803;47.916;8.074;2024-02-14T00:41:46;5.93;;;1.60;;
5559;SDS011;2803;47.916;8.074;2024-02-14T00:44:12;3.37;;;2.03;;
5559;SDS011;2803;47.916;8.074;2024-02-14T00:46:41;7.20;;;1.90;;
5559;SDS011;2803;47.916;8.074;2024-02-14T00:49:08;2.60;;;2.00;;
5559;SDS011;2803;47.916;8.074;2024-02-14T00:51:35;6.23;;;2.33;;
5559;SDS011;2803;47.916;8.074;2024-02-14T00:54:02;5.63;;;1.43;;
5559;SDS011;2803;47.916;8.074;2024-02-14T00:56:30;7.07;;;2.20;;
5559;SDS011;2803;47.916;8.074;2024-02-14T00:58:58;2.00;;;1.40;;
5559;SDS011;2803;47.916;8.074;2024-02-14T01:01:24;2.70;;;1.63;;
5559;SDS011;2803;47.916;8.074;2024-02-14T01:03:51;5.00;;;1.47;;
5559;SDS011;2803;47.916;8.074;2024-02-14T01:06:18;6.30;;;1.80;;
5559;SDS011;2803;47.916;8.074;2024-02-14T01:08:45;7.80;;;1.60;;
5559;SDS011;2803;47.916;8.074;2024-02-14T01:11:12;3.80;;;1.33;;
5559;SDS011;2803;47.916;8.074;2024-02-14T01:13:38;2.87;;;1.50;;
5559;SDS011;2803;47.916;8.074;2024-02-14T01:16:07;4.63;;;1.77;;
5559;SDS011;2803;47.916;8.074;2024-02-14T01:18:34;4.73;;;1.63;;
5559;SDS011;2803;47.916;8.074;2024-02-14T01:21:01;3.83;;;1.63;;
5559;SDS011;2803;47.916;8.074;2024-02-14T01:23:28;5.90;;;2.27;;
5559;SDS011;2803;47.916;8.074;2024-02-14T01:25:54;4.37;;;1.67;;
5559;SDS011;2803;47.916;8.074;2024-02-14T01:28:21;2.63;;;1.50;;
5559;SDS011;2803;47.916;8.074;2024-02-14T01:30:49;2.33;;;1.33;;
5559;SDS011;2803;47.916;8.074;2024-02-14T01:33:17;6.40;;;1.90;;
5559;SDS011;2803;47.916;8.074;2024-02-14T01:35:44;3.93;;;1.53;;
5559;SDS011;2803;47.916;8.074;2024-02-14T01:38:10;5.93;;;1.50;;
5559;SDS011;2803;47.916;8.074;2024-02-14T01:40:38;5.43;;;1.43;;
5559;SDS011;2803;47.916;8.074;2024-02-14T01:43:04;2.70;;;1.23;;
5559;SDS011;2803;47.916;8.074;2024-02-14T01:45:31;1.90;;;0.93;;
5559;SDS011;2803;47.916;8.074;2024-02-14T01:47:58;3.10;;;1.20;;
5559;SDS011;2803;47.916;8.074;2024-02-14T01:50:27;3.20;;;1.50;;
5559;SDS011;2803;47.916;8.074;2024-02-14T01:52:55;3.30;;;1.60;;
5559;SDS011;2803;47.916;8.074;2024-02-14T01:55:24;2.30;;;1.33;;
5559;SDS011;2803;47.916;8.074;2024-02-14T01:57:51;3.00;;;1.40;;
5559;SDS011;2803;47.916;8.074;2024-02-14T02:00:18;1.70;;;1.27;;
5559;SDS011;2803;47.916;8.074;2024-02-14T02:02:45;3.77;;;1.20;;
5559;SDS011;2803;47.916;8.074;2024-02-14T02:05:12;3.00;;;1.47;;
5559;SDS011;2803;47.916;8.074;2024-02-14T02:07:40;3.23;;;1.37;;
5559;SDS011;2803;47.916;8.074;2024-02-14T02:10:08;3.57;;;1.40;;
5559;SDS011;2803;47.916;8.074;2024-02-14T02:12:35;5.47;;;1.70;;
5559;SDS011;2803;47.916;8.074;2024-02-14T02:15:05;2.43;;;1.33;;
5559;SDS011;2803;47.916;8.074;2024-02-14T02:17:36;5.37;;;1.60;;
5559;SDS011;2803;47.916;8.074;2024-02-14T02:20:02;1.63;;;1.13;;
5559;SDS011;2803;47.916;8.074;2024-02-14T02:22:32;4.70;;;1.57;;
5559;SDS011;2803;47.916;8.074;2024-02-14T02:25:01;2.93;;;1.03;;
5559;SDS011;2803;47.916;8.074;2024-02-14T02:27:28;2.57;;;1.10;;
5559;SDS011;2803;47.916;8.074;2024-02-14T02:29:55;1.77;;;1.07;;
5559;SDS011;2803;47.916;8.074;2024-02-14T02:32:21;1.73;;;0.90;;
5559;SDS011;2803;47.916;8.074;2024-02-14T02:34:48;1.97;;;0.93;;
5559;SDS011;2803;47.916;8.074;2024-02-14T02:37:14;1.53;;;1.07;;
5559;SDS011;2803;47.916;8.074;2024-02-14T02:39:41;2.47;;;1.30;;
5559;SDS011;2803;47.916;8.074;2024-02-14T02:42:09;2.40;;;1.27;;
5559;SDS011;2803;47.916;8.074;2024-02-14T02:44:37;3.37;;;1.20;;
5559;SDS011;2803;47.916;8.074;2024-02-14T02:47:04;2.73;;;1.57;;
5559;SDS011;2803;47.916;8.074;2024-02-14T02:49:31;5.30;;;1.50;;
5559;SDS011;2803;47.916;8.074;2024-02-14T02:51:57;6.63;;;1.17;;
5559;SDS011;2803;47.916;8.074;2024-02-14T02:54:24;3.53;;;1.13;;
5559;SDS011;2803;47.916;8.074;2024-02-14T02:56:51;3.13;;;1.50;;
5559;SDS011;2803;47.916;8.074;2024-02-14T02:59:18;2.03;;;1.07;;
5559;SDS011;2803;47.916;8.074;2024-02-14T03:01:45;6.37;;;1.50;;
5559;SDS011;2803;47.916;8.074;2024-02-14T03:04:12;3.33;;;1.10;;
5559;SDS011;2803;47.916;8.074;2024-02-14T03:06:39;3.00;;;1.03;;
5559;SDS011;2803;47.916;8.074;2024-02-14T03:09:08;6.40;;;1.50;;
5559;SDS011;2803;47.916;8.074;2024-02-14T03:11:35;2.07;;;1.00;;
5559;SDS011;2803;47.916;8.074;2024-02-14T03:14:02;2.80;;;0.90;;
5559;SDS011;2803;47.916;8.074;2024-02-14T03:16:30;4.37;;;1.30;;
5559;SDS011;2803;47.916;8.074;2024-02-14T03:18:57;3.17;;;1.43;;
5559;SDS011;2803;47.916;8.074;2024-02-14T03:21:24;2.30;;;1.40;;
5559;SDS011;2803;47.916;8.074;2024-02-14T03:23:52;4.60;;;1.40;;
5559;SDS011;2803;47.916;8.074;2024-02-14T03:26:19;1.70;;;1.20;;
5559;SDS011;2803;47.916;8.074;2024-02-14T03:28:46;4.67;;;1.60;;
5559;SDS011;2803;47.916;8.074;2024-02-14T03:31:13;2.90;;;1.00;;
5559;SDS011;2803;47.916;8.074;2024-02-14T03:33:42;7.60;;;1.23;;
5559;SDS011;2803;47.916;8.074;2024-02-14T03:36:09;2.40;;;1.10;;
5559;SDS011;2803;47.916;8.074;2024-02-14T03:38:35;2.80;;;0.97;;
5559;SDS011;2803;47.916;8.074;2024-02-14T03:41:02;2.57;;;1.17;;
5559;SDS011;2803;47.916;8.074;2024-02-14T03:43:28;8.00;;;1.40;;
5559;SDS011;2803;47.916;8.074;2024-02-14T03:45:56;2.30;;;0.90;;
5559;SDS011;2803;47.916;8.074;2024-02-14T03:48:22;2.80;;;1.13;;
5559;SDS011;2803;47.916;8.074;2024-02-14T03:50:50;1.80;;;1.20;;
5559;SDS011;2803;47.916;8.074;2024-02-14T03:53:17;3.00;;;1.27;;
5559;SDS011;2803;47.916;8.074;2024-02-14T03:55:43;3.17;;;0.90;;
5559;SDS011;2803;47.916;8.074;2024-02-14T03:58:10;2.90;;;1.10;;
5559;SDS011;2803;47.916;8.074;2024-02-14T04:00:38;3.10;;;1.40;;
5559;SDS011;2803;47.916;8.074;2024-02-14T04:03:05;4.13;;;1.10;;
5559;SDS011;2803;47.916;8.074;2024-02-14T04:05:32;1.60;;;0.90;;
5559;SDS011;2803;47.916;8.074;2024-02-14T04:08:00;7.13;;;1.20;;
5559;SDS011;2803;47.916;8.074;2024-02-14T04:10:28;2.40;;;1.00;;
5559;SDS011;2803;47.916;8.074;2024-02-14T04:12:54;1.93;;;1.10;;
5559;SDS011;2803;47.916;8.074;2024-02-14T04:15:21;6.23;;;1.33;;
5559;SDS011;2803;47.916;8.074;2024-02-14T04:17:47;5.77;;;1.10;;
5559;SDS011;2803;47.916;8.074;2024-02-14T04:20:15;2.73;;;1.30;;
5559;SDS011;2803;47.916;8.074;2024-02-14T04:22:42;4.80;;;1.10;;
5559;SDS011;2803;47.916;8.074;2024-02-14T04:25:10;1.97;;;0.97;;
5559;SDS011;2803;47.916;8.074;2024-02-14T04:27:37;3.63;;;1.60;;
5559;SDS011;2803;47.916;8.074;2024-02-14T04:30:04;4.30;;;1.20;;
5559;SDS011;2803;47.916;8.074;2024-02-14T04:32:31;2.17;;;1.37;;
5559;SDS011;2803;47.916;8.074;2024-02-14T04:34:58;3.93;;;1.10;;
5559;SDS011;2803;47.916;8.074;2024-02-14T04:37:25;3.70;;;1.33;;
5559;SDS011;2803;47.916;8.074;2024-02-14T04:39:51;4.50;;;1.20;;
5559;SDS011;2803;47.916;8.074;2024-02-14T04:42:19;3.23;;;1.60;;
5559;SDS011;2803;47.916;8.074;2024-02-14T04:44:46;8.00;;;1.13;;
5559;SDS011;2803;47.916;8.074;2024-02-14T04:47:13;1.37;;;1.17;;
5559;SDS011;2803;47.916;8.074;2024-02-14T04:49:39;3.33;;;1.20;;
5559;SDS011;2803;47.916;8.074;2024-02-14T04:52:06;4.50;;;1.00;;
5559;SDS011;2803;47.916;8.074;2024-02-14T04:54:33;6.37;;;1.20;;
5559;SDS011;2803;47.916;8.074;2024-02-14T04:57:00;1.90;;;1.00;;
5559;SDS011;2803;47.916;8.074;2024-02-14T04:59:28;1.47;;;0.90;;
5559;SDS011;2803;47.916;8.074;2024-02-14T05:01:54;3.43;;;1.23;;
5559;SDS011;2803;47.916;8.074;2024-02-14T05:04:21;4.20;;;1.67;;
5559;SDS011;2803;47.916;8.074;2024-02-14T05:06:48;2.70;;;1.03;;
5559;SDS011;2803;47.916;8.074;2024-02-14T05:09:14;3.13;;;1.57;;
5559;SDS011;2803;47.916;8.074;2024-02-14T05:11:41;3.10;;;1.20;;
5559;SDS011;2803;47.916;8.074;2024-02-14T05:14:08;3.00;;;1.00;;
5559;SDS011;2803;47.916;8.074;2024-02-14T05:16:35;1.60;;;0.93;;
5559;SDS011;2803;47.916;8.074;2024-02-14T05:19:02;2.93;;;1.30;;
5559;SDS011;2803;47.916;8.074;2024-02-14T05:21:29;2.73;;;1.23;;
5559;SDS011;2803;47.916;8.074;2024-02-14T05:23:55;2.47;;;1.23;;
5559;SDS011;2803;47.916;8.074;2024-02-14T05:26:22;2.00;;;0.97;;
5559;SDS011;2803;47.916;8.074;2024-02-14T05:28:49;3.57;;;1.50;;
5559;SDS011;2803;47.916;8.074;2024-02-14T05:31:15;3.50;;;1.17;;
5559;SDS011;2803;47.916;8.074;2024-02-14T05:33:43;11.63;;;1.90;;
5559;SDS011;2803;47.916;8.074;2024-02-14T05:36:10;2.80;;;1.30;;
5559;SDS011;2803;47.916;8.074;2024-02-14T05:38:36;8.20;;;1.13;;
5559;SDS011;2803;47.916;8.074;2024-02-14T05:41:03;1.40;;;1.07;;
5559;SDS011;2803;47.916;8.074;2024-02-14T05:43:32;6.40;;;1.00;;
5559;SDS011;2803;47.916;8.074;2024-02-14T05:46:00;3.83;;;1.30;;
5559;SDS011;2803;47.916;8.074;2024-02-14T05:48:26;2.73;;;1.17;;
5559;SDS011;2803;47.916;8.074;2024-02-14T05:50:54;3.07;;;1.17;;
5559;SDS011;2803;47.916;8.074;2024-02-14T05:53:21;2.27;;;1.10;;
5559;SDS011;2803;47.916;8.074;2024-02-14T05:55:47;4.93;;;1.63;;
5559;SDS011;2803;47.916;8.074;2024-02-14T05:58:14;3.33;;;1.50;;
5559;SDS011;2803;47.916;8.074;2024-02-14T06:00:40;5.10;;;1.07;;
5559;SDS011;2803;47.916;8.074;2024-02-14T06:03:07;1.23;;;1.10;;
5559;SDS011;2803;47.916;8.074;2024-02-14T06:05:34;3.93;;;1.83;;
5559;SDS011;2803;47.916;8.074;2024-02-14T06:08:02;5.43;;;1.90;;
5559;SDS011;2803;47.916;8.074;2024-02-14T06:10:28;4.80;;;1.37;;
5559;SDS011;2803;47.916;8.074;2024-02-14T06:12:55;6.10;;;1.30;;
5559;SDS011;2803;47.916;8.074;2024-02-14T06:15:23;7.03;;;1.70;;
5559;SDS011;2803;47.916;8.074;2024-02-14T06:17:49;2.30;;;1.43;;
5559;SDS011;2803;47.916;8.074;2024-02-14T06:20:16;2.20;;;1.30;;
5559;SDS011;2803;47.916;8.074;2024-02-14T06:22:43;3.10;;;1.70;;
5559;SDS011;2803;47.916;8.074;2024-02-14T06:25:11;6.77;;;1.93;;
5559;SDS011;2803;47.916;8.074;2024-02-14T06:27:38;5.00;;;1.93;;
5559;SDS011;2803;47.916;8.074;2024-02-14T06:30:04;3.10;;;1.73;;
5559;SDS011;2803;47.916;8.074;2024-02-14T06:32:32;3.37;;;1.60;;
5559;SDS011;2803;47.916;8.074;2024-02-14T06:34:58;7.63;;;2.50;;
5559;SDS011;2803;47.916;8.074;2024-02-14T06:37:25;3.97;;;1.90;;
5559;SDS011;2803;47.916;8.074;2024-02-14T06:39:52;4.23;;;1.77;;
5559;SDS011;2803;47.916;8.074;2024-02-14T06:42:20;5.33;;;2.20;;
5559;SDS011;2803;47.916;8.074;2024-02-14T06:44:48;4.80;;;1.23;;
5559;SDS011;2803;47.916;8.074;2024-02-14T06:47:14;7.60;;;2.00;;
5559;SDS011;2803;47.916;8.074;2024-02-14T06:49:41;3.43;;;2.20;;
5559;SDS011;2803;47.916;8.074;2024-02-14T06:52:08;5.10;;;3.17;;
5559;SDS011;2803;47.916;8.074;2024-02-14T06:54:34;8.50;;;4.53;;
5559;SDS011;2803;47.916;8.074;2024-02-14T06:57:01;6.60;;;2.33;;
5559;SDS011;2803;47.916;8.074;2024-02-14T06:59:29;9.67;;;3.87;;
5559;SDS011;2803;47.916;8.074;2024-02-14T07:01:55;6.70;;;3.10;;
5559;SDS011;2803;47.916;8.074;2024-02-14T07:04:22;5.63;;;1.80;;
5559;SDS011;2803;47.916;8.074;2024-02-14T07:06:50;4.27;;;1.80;;
5559;SDS011;2803;47.916;8.074;2024-02-14T07:09:17;3.00;;;1.70;;
5559;SDS011;2803;47.916;8.074;2024-02-14T07:11:44;8.27;;;2.57;;
5559;SDS011;2803;47.916;8.074;2024-02-14T07:14:11;3.60;;;2.50;;
5559;SDS011;2803;47.916;8.074;2024-02-14T07:16:39;5.50;;;2.53;;
5559;SDS011;2803;47.916;8.074;2024-02-14T07:19:06;8.33;;;2.87;;
5559;SDS011;2803;47.916;8.074;2024-02-14T07:21:32;5.27;;;2.43;;
5559;SDS011;2803;47.916;8.074;2024-02-14T07:23:59;2.90;;;1.80;;
5559;SDS011;2803;47.916;8.074;2024-02-14T07:26:26;5.50;;;2.00;;
5559;SDS011;2803;47.916;8.074;2024-02-14T07:28:53;7.70;;;1.80;;
5559;SDS011;2803;47.916;8.074;2024-02-14T07:31:19;3.60;;;1.83;;
5559;SDS011;2803;47.916;8.074;2024-02-14T07:33:48;3.03;;;1.93;;
5559;SDS011;2803;47.916;8.074;2024-02-14T07:36:18;7.13;;;2.07;;
5559;SDS011;2803;47.916;8.074;2024-02-14T07:38:45;3.77;;;1.80;;
5559;SDS011;2803;47.916;8.074;2024-02-14T07:41:11;7.20;;;2.00;;
5559;SDS011;2803;47.916;8.074;2024-02-14T07:43:38;4.53;;;1.60;;
5559;SDS011;2803;47.916;8.074;2024-02-14T07:46:05;2.60;;;1.50;;
5559;SDS011;2803;47.916;8.074;2024-02-14T07:48:32;2.90;;;1.60;;
5559;SDS011;2803;47.916;8.074;2024-02-14T07:51:00;3.67;;;1.83;;
5559;SDS011;2803;47.916;8.074;2024-02-14T07:53:26;2.03;;;1.33;;
5559;SDS011;2803;47.916;8.074;2024-02-14T07:55:53;2.60;;;1.53;;
5559;SDS011;2803;47.916;8.074;2024-02-14T07:58:19;1.87;;;1.30;;
5559;SDS011;2803;47.916;8.074;2024-02-14T08:00:46;4.20;;;1.17;;
5559;SDS011;2803;47.916;8.074;2024-02-14T08:03:13;4.33;;;2.07;;
5559;SDS011;2803;47.916;8.074;2024-02-14T08:05:39;2.50;;;1.33;;
5559;SDS011;2803;47.916;8.074;2024-02-14T08:08:08;9.70;;;1.53;;
5559;SDS011;2803;47.916;8.074;2024-02-14T08:10:35;2.77;;;1.50;;
5559;SDS011;2803;47.916;8.074;2024-02-14T08:13:02;2.30;;;1.23;;
5559;SDS011;2803;47.916;8.074;2024-02-14T08:15:29;4.13;;;1.50;;
5559;SDS011;2803;47.916;8.074;2024-02-14T08:17:57;3.67;;;1.70;;
5559;SDS011;2803;47.916;8.074;2024-02-14T08:20:24;2.13;;;1.60;;
5559;SDS011;2803;47.916;8.074;2024-02-14T08:22:50;2.40;;;1.10;;
5559;SDS011;2803;47.916;8.074;2024-02-14T08:25:18;2.57;;;1.70;;
5559;SDS011;2803;47.916;8.074;2024-02-14T08:27:45;6.00;;;1.50;;
5559;SDS011;2803;47.916;8.074;2024-02-14T08:30:12;2.80;;;1.33;;
5559;SDS011;2803;47.916;8.074;2024-02-14T08:32:40;2.60;;;1.23;;
5559;SDS011;2803;47.916;8.074;2024-02-14T08:35:07;3.67;;;1.40;;
5559;SDS011;2803;47.916;8.074;2024-02-14T08:37:34;3.37;;;1.63;;
5559;SDS011;2803;47.916;8.074;2024-02-14T08:40:03;2.50;;;1.30;;
5559;SDS011;2803;47.916;8.074;2024-02-14T08:42:32;4.30;;;1.50;;
5559;SDS011;2803;47.916;8.074;2024-02-14T08:44:59;2.37;;;1.50;;
5559;SDS011;2803;47.916;8.074;2024-02-14T08:47:25;3.97;;;1.67;;
5559;SDS011;2803;47.916;8.074;2024-02-14T08:49:52;3.30;;;1.70;;
5559;SDS011;2803;47.916;8.074;2024-02-14T08:52:18;4.07;;;1.60;;
5559;SDS011;2803;47.916;8.074;2024-02-14T08:54:46;2.93;;;1.57;;
5559;SDS011;2803;47.916;8.074;2024-02-14T08:57:12;6.23;;;1.70;;
5559;SDS011;2803;47.916;8.074;2024-02-14T08:59:40;5.20;;;1.50;;
5559;SDS011;2803;47.916;8.074;2024-02-14T09:02:09;3.87;;;1.70;;
5559;SDS011;2803;47.916;8.074;2024-02-14T09:04:35;4.57;;;1.97;;
5559;SDS011;2803;47.916;8.074;2024-02-14T09:07:05;5.90;;;2.00;;
5559;SDS011;2803;47.916;8.074;2024-02-14T09:09:32;2.07;;;1.40;;
5559;SDS011;2803;47.916;8.074;2024-02-14T09:11:59;2.97;;;1.60;;
5559;SDS011;2803;47.916;8.074;2024-02-14T09:14:27;2.30;;;1.40;;
5559;SDS011;2803;47.916;8.074;2024-02-14T09:16:56;2.90;;;1.77;;
5559;SDS011;2803;47.916;8.074;2024-02-14T09:19:23;2.57;;;1.70;;
5559;SDS011;2803;47.916;8.074;2024-02-14T09:21:50;4.27;;;1.50;;
5559;SDS011;2803;47.916;8.074;2024-02-14T09:24:16;5.70;;;2.17;;
5559;SDS011;2803;47.916;8.074;2024-02-14T09:26:43;7.70;;;1.70;;
5559;SDS011;2803;47.916;8.074;2024-02-14T09:29:10;3.23;;;1.50;;
5559;SDS011;2803;47.916;8.074;2024-02-14T09:31:36;2.63;;;1.57;;
5559;SDS011;2803;47.916;8.074;2024-02-14T09:34:04;7.20;;;1.80;;
5559;SDS011;2803;47.916;8.074;2024-02-14T09:36:31;2.97;;;1.37;;
5559;SDS011;2803;47.916;8.074;2024-02-14T09:38:58;2.30;;;1.63;;
5559;SDS011;2803;47.916;8.074;2024-02-14T09:41:25;1.80;;;1.13;;
5559;SDS011;2803;47.916;8.074;2024-02-14T09:43:55;3.20;;;1.47;;
5559;SDS011;2803;47.916;8.074;2024-02-14T09:46:22;3.30;;;1.30;;
5559;SDS011;2803;47.916;8.074;2024-02-14T09:48:50;5.27;;;1.70;;
5559;SDS011;2803;47.916;8.074;2024-02-14T09:51:20;2.57;;;1.30;;
5559;SDS011;2803;47.916;8.074;2024-02-14T09:53:47;5.07;;;1.90;;
5559;SDS011;2803;47.916;8.074;2024-02-14T09:56:16;1.87;;;1.30;;
5559;SDS011;2803;47.916;8.074;2024-02-14T09:58:46;4.17;;;1.17;;
5559;SDS011;2803;47.916;8.074;2024-02-14T10:01:21;1.67;;;1.00;;
5559;SDS011;2803;47.916;8.074;2024-02-14T10:03:49;3.27;;;1.20;;
5559;SDS011;2803;47.916;8.074;2024-02-14T10:06:15;1.10;;;0.70;;
5559;SDS011;2803;47.916;8.074;2024-02-14T10:08:44;1.70;;;1.10;;
5559;SDS011;2803;47.916;8.074;2024-02-14T10:11:11;1.00;;;0.70;;
5559;SDS011;2803;47.916;8.074;2024-02-14T10:13:40;1.00;;;0.63;;
5559;SDS011;2803;47.916;8.074;2024-02-14T10:16:06;1.10;;;0.70;;
5559;SDS011;2803;47.916;8.074;2024-02-14T10:18:33;1.83;;;1.00;;
5559;SDS011;2803;47.916;8.074;2024-02-14T10:21:00;0.90;;;0.70;;
5559;SDS011;2803;47.916;8.074;2024-02-14T10:23:26;2.60;;;0.93;;
5559;SDS011;2803;47.916;8.074;2024-02-14T10:25:56;1.50;;;0.70;;
5559;SDS011;2803;47.916;8.074;2024-02-14T10:28:23;1.47;;;0.60;;
5559;SDS011;2803;47.916;8.074;2024-02-14T10:30:50;2.33;;;0.80;;
5559;SDS011;2803;47.916;8.074;2024-02-14T10:33:17;3.27;;;0.80;;
5559;SDS011;2803;47.916;8.074;2024-02-14T10:35:45;4.30;;;0.70;;
5559;SDS011;2803;47.916;8.074;2024-02-14T10:38:13;1.33;;;0.63;;
5559;SDS011;2803;47.916;8.074;2024-02-14T10:40:41;4.50;;;0.80;;
5559;SDS011;2803;47.916;8.074;2024-02-14T10:43:09;1.20;;;0.53;;
5559;SDS011;2803;47.916;8.074;2024-02-14T10:45:36;1.30;;;0.70;;
5559;SDS011;2803;47.916;8.074;2024-02-14T10:48:03;0.80;;;0.50;;
5559;SDS011;2803;47.916;8.074;2024-02-14T10:50:32;1.33;;;0.80;;
5559;SDS011;2803;47.916;8.074;2024-02-14T10:53:02;1.20;;;0.63;;
5559;SDS011;2803;47.916;8.074;2024-02-14T10:55:30;1.10;;;0.60;;
5559;SDS011;2803;47.916;8.074;2024-02-14T10:57:59;1.00;;;0.60;;
5559;SDS011;2803;47.916;8.074;2024-02-14T11:00:27;1.00;;;0.60;;
5559;SDS011;2803;47.916;8.074;2024-02-14T11:02:55;0.90;;;0.70;;
5559;SDS011;2803;47.916;8.074;2024-02-14T11:05:21;2.97;;;0.80;;
5559;SDS011;2803;47.916;8.074;2024-02-14T11:07:49;1.63;;;0.70;;
5559;SDS011;2803;47.916;8.074;2024-02-14T11:10:18;1.20;;;0.67;;
5559;SDS011;2803;47.916;8.074;2024-02-14T11:12:46;1.20;;;0.70;;
5559;SDS011;2803;47.916;8.074;2024-02-14T11:15:16;0.90;;;0.60;;
5559;SDS011;2803;47.916;8.074;2024-02-14T11:17:44;1.53;;;0.70;;
5559;SDS011;2803;47.916;8.074;2024-02-14T11:20:14;1.00;;;0.60;;
5559;SDS011;2803;47.916;8.074;2024-02-14T11:22:49;1.73;;;0.73;;
5559;SDS011;2803;47.916;8.074;2024-02-14T11:25:23;0.90;;;0.60;;
5559;SDS011;2803;47.916;8.074;2024-02-14T11:27:55;0.90;;;0.50;;
5559;SDS011;2803;47.916;8.074;2024-02-14T11:30:29;3.20;;;0.80;;
5559;SDS011;2803;47.916;8.074;2024-02-14T11:33:10;4.00;;;0.70;;
5559;SDS011;2803;47.916;8.074;2024-02-14T11:35:39;2.20;;;0.70;;
5559;SDS011;2803;47.916;8.074;2024-02-14T11:38:08;1.07;;;0.60;;
5559;SDS011;2803;47.916;8.074;2024-02-14T11:40:35;1.10;;;0.60;;
5559;SDS011;2803;47.916;8.074;2024-02-14T11:43:03;1.17;;;0.60;;
5559;SDS011;2803;47.916;8.074;2024-02-14T11:45:30;2.50;;;0.80;;
5559;SDS011;2803;47.916;8.074;2024-02-14T11:47:57;0.90;;;0.50;;
5559;SDS011;2803;47.916;8.074;2024-02-14T11:50:24;2.07;;;0.67;;
5559;SDS011;2803;47.916;8.074;2024-02-14T11:52:51;1.30;;;0.70;;
5559;SDS011;2803;47.916;8.074;2024-02-14T11:55:18;1.07;;;0.70;;
5559;SDS011;2803;47.916;8.074;2024-02-14T11:57:52;1.60;;;0.87;;
5559;SDS011;2803;47.916;8.074;2024-02-14T12:00:19;1.37;;;0.80;;
5559;SDS011;2803;47.916;8.074;2024-02-14T12:02:46;1.13;;;0.70;;
5559;SDS011;2803;47.916;8.074;2024-02-14T12:05:14;0.90;;;0.60;;
5559;SDS011;2803;47.916;8.074;2024-02-14T12:07:43;1.93;;;0.70;;
5559;SDS011;2803;47.916;8.074;2024-02-14T12:10:10;1.43;;;0.67;;
5559;SDS011;2803;47.916;8.074;2024-02-14T12:12:37;1.00;;;0.70;;
5559;SDS011;2803;47.916;8.074;2024-02-14T12:15:04;1.47;;;0.90;;
5559;SDS011;2803;47.916;8.074;2024-02-14T12:17:31;1.17;;;0.63;;
5559;SDS011;2803;47.916;8.074;2024-02-14T12:20:05;1.10;;;0.60;;
5559;SDS011;2803;47.916;8.074;2024-02-14T12:22:34;1.10;;;0.70;;
5559;SDS011;2803;47.916;8.074;2024-02-14T12:25:03;1.00;;;0.60;;
5559;SDS011;2803;47.916;8.074;2024-02-14T12:27:32;1.20;;;0.77;;
5559;SDS011;2803;47.916;8.074;2024-02-14T12:29:59;4.83;;;0.80;;
5559;SDS011;2803;47.916;8.074;2024-02-14T12:32:29;1.93;;;1.00;;
5559;SDS011;2803;47.916;8.074;2024-02-14T12:34:55;3.37;;;1.73;;
5559;SDS011;2803;47.916;8.074;2024-02-14T12:37:22;3.63;;;1.07;;
5559;SDS011;2803;47.916;8.074;2024-02-14T12:39:49;1.00;;;0.70;;
5559;SDS011;2803;47.916;8.074;2024-02-14T12:42:17;3.17;;;1.70;;
5559;SDS011;2803;47.916;8.074;2024-02-14T12:44:50;1.00;;;0.70;;
5559;SDS011;2803;47.916;8.074;2024-02-14T12:47:16;0.90;;;0.60;;
5559;SDS011;2803;47.916;8.074;2024-02-14T12:49:44;1.43;;;0.83;;
5559;SDS011;2803;47.916;8.074;2024-02-14T12:52:13;1.27;;;0.70;;
5559;SDS011;2803;47.916;8.074;2024-02-14T12:54:40;1.00;;;0.53;;
5559;SDS011;2803;47.916;8.074;2024-02-14T12:57:07;0.80;;;0.50;;
5559;SDS011;2803;47.916;8.074;2024-02-14T12:59:35;1.27;;;0.67;;
5559;SDS011;2803;47.916;8.074;2024-02-14T13:02:02;0.80;;;0.50;;
5559;SDS011;2803;47.916;8.074;2024-02-14T13:04:32;0.80;;;0.50;;
5559;SDS011;2803;47.916;8.074;2024-02-14T13:06:59;0.80;;;0.50;;
5559;SDS011;2803;47.916;8.074;2024-02-14T13:09:26;1.00;;;0.67;;
5559;SDS011;2803;47.916;8.074;2024-02-14T13:11:53;0.83;;;0.40;;
5559;SDS011;2803;47.916;8.074;2024-02-14T13:14:20;0.80;;;0.50;;
5559;SDS011;2803;47.916;8.074;2024-02-14T13:16:48;0.80;;;0.50;;
5559;SDS011;2803;47.916;8.074;2024-02-14T13:19:14;1.10;;;0.60;;
5559;SDS011;2803;47.916;8.074;2024-02-14T13:21:42;1.63;;;0.60;;
5559;SDS011;2803;47.916;8.074;2024-02-14T13:24:10;0.90;;;0.40;;
5559;SDS011;2803;47.916;8.074;2024-02-14T13:26:38;1.00;;;0.50;;
5559;SDS011;2803;47.916;8.074;2024-02-14T13:29:05;0.90;;;0.60;;
5559;SDS011;2803;47.916;8.074;2024-02-14T13:31:32;3.23;;;0.70;;
5559;SDS011;2803;47.916;8.074;2024-02-14T13:34:00;1.10;;;0.67;;
5559;SDS011;2803;47.916;8.074;2024-02-14T13:36:28;0.80;;;0.50;;
5559;SDS011;2803;47.916;8.074;2024-02-14T13:38:55;0.80;;;0.50;;
5559;SDS011;2803;47.916;8.074;2024-02-14T13:41:22;1.20;;;0.50;;
5559;SDS011;2803;47.916;8.074;2024-02-14T13:43:48;0.80;;;0.60;;
5559;SDS011;2803;47.916;8.074;2024-02-14T13:46:15;1.00;;;0.53;;
5559;SDS011;2803;47.916;8.074;2024-02-14T13:48:43;0.80;;;0.50;;
5559;SDS011;2803;47.916;8.074;2024-02-14T13:51:11;0.80;;;0.50;;
5559;SDS011;2803;47.916;8.074;2024-02-14T13:53:37;2.00;;;0.80;;
5559;SDS011;2803;47.916;8.074;2024-02-14T13:56:04;0.83;;;0.50;;
5559;SDS011;2803;47.916;8.074;2024-02-14T13:58:31;0.90;;;0.50;;
5559;SDS011;2803;47.916;8.074;2024-02-14T14:00:58;2.03;;;0.50;;
5559;SDS011;2803;47.916;8.074;2024-02-14T14:03:25;1.20;;;0.70;;
5559;SDS011;2803;47.916;8.074;2024-02-14T14:05:51;6.63;;;0.70;;
5559;SDS011;2803;47.916;8.074;2024-02-14T14:08:20;0.90;;;0.50;;
5559;SDS011;2803;47.916;8.074;2024-02-14T14:10:46;1.63;;;0.60;;
5559;SDS011;2803;47.916;8.074;2024-02-14T14:13:13;1.63;;;0.70;;
5559;SDS011;2803;47.916;8.074;2024-02-14T14:15:41;0.80;;;0.50;;
5559;SDS011;2803;47.916;8.074;2024-02-14T14:18:09;0.80;;;0.50;;
5559;SDS011;2803;47.916;8.074;2024-02-14T14:20:36;0.87;;;0.57;;
5559;SDS011;2803;47.916;8.074;2024-02-14T14:23:03;1.10;;;0.60;;
5559;SDS011;2803;47.916;8.074;2024-02-14T14:25:31;1.10;;;0.70;;
5559;SDS011;2803;47.916;8.074;2024-02-14T14:27:58;3.00;;;0.60;;
5559;SDS011;2803;47.916;8.074;2024-02-14T14:30:25;0.90;;;0.50;;
5559;SDS011;2803;47.916;8.074;2024-02-14T14:32:51;0.90;;;0.50;;
5559;SDS011;2803;47.916;8.074;2024-02-14T14:35:18;0.87;;;0.50;;
5559;SDS011;2803;47.916;8.074;2024-02-14T14:37:45;1.00;;;0.60;;
5559;SDS011;2803;47.916;8.074;2024-02-14T14:40:11;2.20;;;0.57;;
5559;SDS011;2803;47.916;8.074;2024-02-14T14:42:40;0.80;;;0.50;;
5559;SDS011;2803;47.916;8.074;2024-02-14T14:45:06;1.00;;;0.57;;
5559;SDS011;2803;47.916;8.074;2024-02-14T14:47:33;1.20;;;0.47;;
5559;SDS011;2803;47.916;8.074;2024-02-14T14:50:00;9.93;;;0.70;;
5559;SDS011;2803;47.916;8.074;2024-02-14T14:52:28;29.87;;;1.33;;
5559;SDS011;2803;47.916;8.074;2024-02-14T14:54:56;2.97;;;0.70;;
5559;SDS011;2803;47.916;8.074;2024-02-14T14:57:22;3.70;;;0.57;;
5559;SDS011;2803;47.916;8.074;2024-02-14T14:59:50;1.13;;;0.60;;
5559;SDS011;2803;47.916;8.074;2024-02-14T15:02:19;2.10;;;0.60;;
5559;SDS011;2803;47.916;8.074;2024-02-14T15:04:47;1.13;;;0.60;;
5559;SDS011;2803;47.916;8.074;2024-02-14T15:07:15;1.30;;;0.73;;
5559;SDS011;2803;47.916;8.074;2024-02-14T15:09:46;0.90;;;0.60;;
5559;SDS011;2803;47.916;8.074;2024-02-14T15:12:12;1.00;;;0.53;;
5559;SDS011;2803;47.916;8.074;2024-02-14T15:14:39;1.53;;;0.60;;